createdAt,value
2019-04-27T00:04:34.577Z,78.4
2019-04-27T00:09:34.625Z,79.1
2019-04-27T00:14:34.655Z,78.6
2019-04-27T00:19:35.353Z,79.4
2019-04-27T00:24:35.804Z,79.6
2019-04-27T00:29:34.300Z,79.8
2019-04-27T00:34:34.483Z,79.5
2019-04-27T00:39:34.932Z,79.5
2019-04-27T00:44:34.365Z,79.7
2019-04-27T00:49:34.312Z,80.1
2019-04-27T00:54:34.440Z,80
2019-04-27T00:59:34.415Z,80.6
2019-04-27T01:04:34.323Z,81.5
2019-04-27T01:09:34.499Z,81.7
2019-04-27T01:14:34.398Z,81.7
2019-04-27T01:19:34.324Z,82.1
2019-04-27T01:24:34.241Z,82.4
2019-04-27T01:29:34.356Z,82.9
2019-04-27T01:34:34.387Z,83.2
2019-04-27T01:39:34.637Z,83.2
2019-04-27T01:44:34.618Z,83
2019-04-27T01:49:34.363Z,83.6
2019-04-27T01:54:34.294Z,83.1
2019-04-27T01:59:34.130Z,82.3
2019-04-27T02:04:34.403Z,81.7
2019-04-27T02:09:34.127Z,81.3
2019-04-27T02:14:34.347Z,81.5
2019-04-27T02:19:34.021Z,80.7
2019-04-27T02:24:34.214Z,80.9
2019-04-27T02:29:34.452Z,80.8
2019-04-27T02:34:34.075Z,80.1
2019-04-27T02:39:34.506Z,80.3
2019-04-27T02:44:34.173Z,80.1
2019-04-27T02:49:34.310Z,81
2019-04-27T02:54:34.055Z,80.3
2019-04-27T02:59:34.058Z,81.1
2019-04-27T03:04:34.054Z,82.4
2019-04-27T03:09:34.481Z,83.7
2019-04-27T03:14:36.468Z,84.6
2019-04-27T03:19:34.068Z,84.5
2019-04-27T03:24:34.122Z,84.2
2019-04-27T03:29:34.150Z,83.2
2019-04-27T03:34:33.951Z,82.9
2019-04-27T03:39:33.897Z,81.8
2019-04-27T03:44:34.190Z,81.6
2019-04-27T03:49:37.687Z,81.4
2019-04-27T03:54:34.253Z,81.6
2019-04-27T03:59:34.316Z,81.7
2019-04-27T04:04:34.211Z,81.2
2019-04-27T04:09:33.991Z,81.4
2019-04-27T04:14:36.798Z,81
2019-04-27T04:19:47.675Z,80.8
2019-04-27T04:24:34.011Z,82.2
2019-04-27T04:29:34.370Z,82.4
2019-04-27T04:34:33.991Z,84.7
2019-04-27T04:39:33.944Z,86.7
2019-04-27T04:44:34.189Z,87.4
2019-04-27T04:49:34.235Z,88.3
2019-04-27T04:54:33.984Z,91.5
2019-04-27T04:59:34.227Z,93.6
2019-04-27T05:04:34.205Z,96.4
2019-04-27T05:09:34.028Z,98.7
2019-04-27T05:14:33.834Z,99.3
2019-04-27T05:19:33.920Z,99.9
2019-04-27T05:24:34.120Z,100
2019-04-27T05:29:33.979Z,100
2019-04-27T05:34:34.160Z,100
2019-04-27T05:39:34.017Z,100
2019-04-27T05:44:33.894Z,100
2019-04-27T05:49:36.288Z,100
2019-04-27T05:54:34.069Z,100
2019-04-27T05:59:34.024Z,100
2019-04-27T06:04:33.844Z,100
2019-04-27T06:09:33.794Z,100
2019-04-27T06:14:33.798Z,100
2019-04-27T06:19:33.787Z,100
2019-04-27T06:24:33.946Z,100
2019-04-27T06:29:34.094Z,100
2019-04-27T06:34:34.000Z,100
2019-04-27T06:39:33.892Z,100
2019-04-27T06:44:34.098Z,100
2019-04-27T06:49:33.935Z,100
2019-04-27T06:54:34.031Z,100
2019-04-27T06:59:33.934Z,100
2019-04-27T07:04:33.896Z,100
2019-04-27T07:09:33.865Z,100
2019-04-27T07:14:33.800Z,100
2019-04-27T07:19:33.749Z,100
2019-04-27T07:24:33.746Z,100
2019-04-27T07:29:33.896Z,100
2019-04-27T07:34:33.597Z,100
2019-04-27T07:39:33.664Z,100
2019-04-27T07:44:33.804Z,100
2019-04-27T07:49:33.776Z,100
2019-04-27T07:54:33.899Z,100
2019-04-27T07:59:33.881Z,95.7
2019-04-27T08:04:33.744Z,93
2019-04-27T08:09:33.678Z,94
2019-04-27T08:14:33.558Z,87.4
2019-04-27T08:19:33.668Z,86.1
2019-04-27T08:24:33.644Z,88
2019-04-27T08:29:33.812Z,86.5
2019-04-27T08:34:33.453Z,87
2019-04-27T08:39:33.968Z,84.2
2019-04-27T08:44:33.603Z,86.5
2019-04-27T08:49:33.801Z,79.9
2019-04-27T08:54:33.381Z,81
2019-04-27T08:59:33.423Z,85.7
2019-04-27T09:04:33.483Z,79
2019-04-27T09:09:33.887Z,77.3
2019-04-27T09:14:33.804Z,77.2
2019-04-27T09:19:33.765Z,76.6
2019-04-27T09:24:33.548Z,74.7
2019-04-27T09:29:33.669Z,73.1
2019-04-27T09:34:33.636Z,71.7
2019-04-27T09:39:33.519Z,74.5
2019-04-27T09:44:33.456Z,73.3
2019-04-27T09:49:33.634Z,72
2019-04-27T09:54:33.448Z,72.1
2019-04-27T09:59:33.597Z,70.2
2019-04-27T10:04:33.636Z,70.6
2019-04-27T10:09:33.782Z,66.9
2019-04-27T10:14:33.521Z,64.6
2019-04-27T10:19:33.794Z,65.4
2019-04-27T10:24:33.486Z,66
2019-04-27T10:29:33.534Z,67.3
2019-04-27T10:34:33.657Z,66
2019-04-27T10:39:33.512Z,63.1
2019-04-27T10:44:33.570Z,64.5
2019-04-27T10:49:33.237Z,67.1
2019-04-27T10:54:33.358Z,66.9
2019-04-27T10:59:33.353Z,63.8
2019-04-27T11:04:33.332Z,63.5
2019-04-27T11:09:33.534Z,63
2019-04-27T11:14:33.500Z,60.1
2019-04-27T11:19:33.549Z,61
2019-04-27T11:24:33.773Z,60.1
2019-04-27T11:29:33.649Z,76.7
2019-04-27T11:34:33.233Z,81.8
2019-04-27T11:39:33.279Z,84.2
2019-04-27T11:44:33.351Z,86.8
2019-04-27T11:49:33.605Z,84.2
2019-04-27T11:54:33.296Z,84.3
2019-04-27T11:59:33.365Z,83.6
2019-04-27T12:04:33.464Z,82
2019-04-27T12:09:33.451Z,76.6
2019-04-27T12:14:33.426Z,77.4
2019-04-27T12:19:33.356Z,80.7
2019-04-27T12:24:33.623Z,76.2
2019-04-27T12:29:33.294Z,72.6
2019-04-27T12:34:33.342Z,76.8
2019-04-27T12:39:33.627Z,78
2019-04-27T12:44:40.469Z,71.7
2019-04-27T12:49:33.348Z,72.7
2019-04-27T12:54:33.525Z,73.6
2019-04-27T12:59:33.412Z,69.2
2019-04-27T13:04:33.291Z,68.7
2019-04-27T13:09:33.480Z,66.9
2019-04-27T13:14:33.518Z,63.1
2019-04-27T13:19:33.442Z,66.3
2019-04-27T13:24:33.310Z,66.3
2019-04-27T13:29:33.339Z,67.8
2019-04-27T13:34:33.418Z,65.9
2019-04-27T13:39:33.445Z,66
2019-04-27T13:44:33.221Z,64.8
2019-04-27T13:49:33.142Z,66.8
2019-04-27T13:54:32.995Z,67
2019-04-27T13:59:33.328Z,65.4
2019-04-27T14:04:33.096Z,67.4
2019-04-27T14:09:33.296Z,68.1
2019-04-27T14:14:33.133Z,65.8
2019-04-27T14:19:33.211Z,64.1
2019-04-27T14:24:33.228Z,65.2
2019-04-27T14:29:33.625Z,69.5
2019-04-27T14:34:33.207Z,69.5
2019-04-27T14:39:33.496Z,68.2
2019-04-27T14:44:33.092Z,67.1
2019-04-27T14:49:33.277Z,65.8
2019-04-27T14:54:45.182Z,66.2
2019-04-27T14:59:33.132Z,66
2019-04-27T15:04:33.675Z,68
2019-04-27T15:09:33.355Z,69.8
2019-04-27T15:14:33.215Z,68.8
2019-04-27T15:19:33.089Z,69
2019-04-27T15:24:33.266Z,74.2
2019-04-27T15:29:33.019Z,79.6
2019-04-27T15:34:35.393Z,82
2019-04-27T15:39:32.981Z,80.1
2019-04-27T15:44:36.575Z,79.8
2019-04-27T15:49:33.152Z,77.3
2019-04-27T15:54:33.033Z,76.1
2019-04-27T15:59:37.840Z,74.6
2019-04-27T16:04:34.497Z,75.3
2019-04-27T16:09:32.939Z,78
2019-04-27T16:14:36.391Z,83.9
2019-04-27T16:19:33.239Z,83.1
2019-04-27T16:24:32.788Z,83.9
2019-04-27T16:29:33.016Z,86.5
2019-04-27T16:34:37.008Z,85.7
2019-04-27T16:39:33.255Z,85.5
2019-04-27T16:44:32.762Z,83.2
2019-04-27T16:49:33.087Z,82.6
2019-04-27T16:54:33.039Z,80.9
2019-04-27T17:04:33.065Z,81.9
2019-04-27T17:09:36.226Z,81.4
2019-04-27T17:12:41.154Z,83.3
2019-04-27T17:14:36.479Z,83
2019-04-27T17:19:35.914Z,82.2
2019-04-27T17:24:37.489Z,86.3
2019-04-27T17:29:32.984Z,87
2019-04-27T17:34:32.950Z,87
2019-04-27T17:39:32.826Z,85.2
2019-04-27T17:44:32.936Z,85.8
2019-04-27T17:49:32.909Z,84.3
2019-04-27T17:54:33.051Z,84.7
2019-04-27T17:59:32.899Z,83.4
2019-04-27T18:04:36.865Z,81.8
2019-04-27T18:09:33.420Z,81.5
2019-04-27T18:14:39.368Z,81.9
2019-04-27T18:19:32.641Z,81.4
2019-04-27T18:24:32.674Z,81
2019-04-27T18:29:32.822Z,80.9
2019-04-27T18:34:32.718Z,80.1
2019-04-27T18:39:32.931Z,79.8
2019-04-27T18:44:32.800Z,80.9
2019-04-27T18:49:32.861Z,79.1
2019-04-27T18:54:37.565Z,79.5
2019-04-27T18:59:32.750Z,78.8
2019-04-27T19:04:32.902Z,78.3
2019-04-27T19:09:32.964Z,77.7
2019-04-27T19:14:32.873Z,76.5
2019-04-27T19:19:32.911Z,75.6
2019-04-27T19:24:32.965Z,75.7
2019-04-27T19:29:32.630Z,74.6
2019-04-27T19:34:32.981Z,75.7
2019-04-27T19:39:32.714Z,75
2019-04-27T19:44:33.073Z,73.2
2019-04-27T19:49:32.875Z,73.7
2019-04-27T19:54:33.007Z,74.4
2019-04-27T19:59:33.232Z,73.8
2019-04-27T20:04:32.764Z,74.7
2019-04-27T20:09:32.725Z,73.5
2019-04-27T20:14:32.779Z,75
2019-04-27T20:19:32.507Z,76.1
2019-04-27T20:24:33.544Z,79.6
2019-04-27T20:29:32.631Z,84
2019-04-27T20:34:32.850Z,84.5
2019-04-27T20:39:32.697Z,84.6
2019-04-27T20:44:32.643Z,86.5
2019-04-27T20:49:32.506Z,87.2
2019-04-27T20:54:32.733Z,89
2019-04-27T20:59:32.640Z,89.4
2019-04-27T21:04:32.889Z,88.2
2019-04-27T21:09:32.717Z,88.6
2019-04-27T21:14:32.430Z,87.9
2019-04-27T21:19:32.490Z,89.1
2019-04-27T21:24:32.659Z,89.3
2019-04-27T21:29:32.530Z,89.6
2019-04-27T21:34:32.458Z,88.8
2019-04-27T21:39:32.553Z,89.2
2019-04-27T21:44:32.638Z,89.4
2019-04-27T21:49:32.535Z,89.1
2019-04-27T21:54:32.995Z,89.2
2019-04-27T21:59:32.649Z,89.2
2019-04-27T22:04:32.515Z,88.6
2019-04-27T22:09:32.553Z,88.5
2019-04-27T22:14:32.513Z,88.9
2019-04-27T22:19:32.597Z,89.2
2019-04-27T22:24:32.662Z,90.7
2019-04-27T22:29:32.619Z,92.1
2019-04-27T22:34:32.638Z,92.5
2019-04-27T22:39:32.408Z,94
2019-04-27T22:44:32.370Z,94.9
2019-04-27T22:49:32.644Z,93.7
2019-04-27T22:54:32.532Z,95.6
2019-04-27T22:59:32.548Z,96
2019-04-27T23:04:32.606Z,96.9
2019-04-27T23:09:32.299Z,97.7
2019-04-27T23:14:32.397Z,98.2
2019-04-27T23:19:32.521Z,98.3
2019-04-27T23:24:32.581Z,97.7
2019-04-27T23:29:33.211Z,96.2
2019-04-27T23:34:32.280Z,96.8
2019-04-27T23:39:32.364Z,96.8
2019-04-27T23:44:32.228Z,97
2019-04-27T23:49:32.503Z,97.2
2019-04-27T23:54:32.323Z,97.8
2019-04-27T23:59:33.337Z,97.8
